sensor_id;sensor_type;location;lat;lon;timestamp;P1;durP1;ratioP1;P2;durP2;ratioP2
2674;SDS011;1347;42.122;24.746;2023-02-15T00:01:06;19.60;;;14.87;;
2674;SDS011;1347;42.122;24.746;2023-02-15T00:03:33;19.33;;;14.50;;
2674;SDS011;1347;42.122;24.746;2023-02-15T00:06:00;17.60;;;14.23;;
2674;SDS011;1347;42.122;24.746;2023-02-15T00:08:27;18.20;;;13.37;;
2674;SDS011;1347;42.122;24.746;2023-02-15T00:11:02;24.23;;;16.73;;
2674;SDS011;1347;42.122;24.746;2023-02-15T00:13:30;19.73;;;16.10;;
2674;SDS011;1347;42.122;24.746;2023-02-15T00:16:00;20.73;;;15.30;;
2674;SDS011;1347;42.122;24.746;2023-02-15T00:18:29;19.03;;;15.10;;
2674;SDS011;1347;42.122;24.746;2023-02-15T00:20:56;19.10;;;16.17;;
2674;SDS011;1347;42.122;24.746;2023-02-15T00:23:23;21.20;;;15.87;;
2674;SDS011;1347;42.122;24.746;2023-02-15T00:25:50;17.73;;;15.23;;
2674;SDS011;1347;42.122;24.746;2023-02-15T00:28:17;21.60;;;13.93;;
2674;SDS011;1347;42.122;24.746;2023-02-15T00:30:44;19.67;;;15.47;;
2674;SDS011;1347;42.122;24.746;2023-02-15T00:33:10;21.20;;;15.97;;
2674;SDS011;1347;42.122;24.746;2023-02-15T00:35:39;20.43;;;16.87;;
2674;SDS011;1347;42.122;24.746;2023-02-15T00:38:06;22.80;;;16.60;;
2674;SDS011;1347;42.122;24.746;2023-02-15T00:40:33;21.83;;;15.63;;
2674;SDS011;1347;42.122;24.746;2023-02-15T00:42:59;20.97;;;15.87;;
2674;SDS011;1347;42.122;24.746;2023-02-15T00:45:26;22.57;;;17.20;;
2674;SDS011;1347;42.122;24.746;2023-02-15T00:47:53;22.10;;;16.40;;
2674;SDS011;1347;42.122;24.746;2023-02-15T00:50:20;20.30;;;15.57;;
2674;SDS011;1347;42.122;24.746;2023-02-15T00:52:48;22.70;;;16.63;;
2674;SDS011;1347;42.122;24.746;2023-02-15T00:55:15;24.70;;;16.27;;
2674;SDS011;1347;42.122;24.746;2023-02-15T00:57:43;22.30;;;16.43;;
2674;SDS011;1347;42.122;24.746;2023-02-15T01:00:10;25.20;;;17.43;;
2674;SDS011;1347;42.122;24.746;2023-02-15T01:02:38;22.10;;;16.47;;
2674;SDS011;1347;42.122;24.746;2023-02-15T01:05:05;23.53;;;16.10;;
2674;SDS011;1347;42.122;24.746;2023-02-15T01:07:32;23.20;;;18.10;;
2674;SDS011;1347;42.122;24.746;2023-02-15T01:10:00;21.87;;;16.57;;
2674;SDS011;1347;42.122;24.746;2023-02-15T01:12:27;26.50;;;17.60;;
2674;SDS011;1347;42.122;24.746;2023-02-15T01:14:54;23.53;;;17.37;;
2674;SDS011;1347;42.122;24.746;2023-02-15T01:17:21;23.23;;;17.80;;
2674;SDS011;1347;42.122;24.746;2023-02-15T01:19:48;23.17;;;16.97;;
2674;SDS011;1347;42.122;24.746;2023-02-15T01:22:16;21.10;;;15.77;;
2674;SDS011;1347;42.122;24.746;2023-02-15T01:24:43;24.03;;;17.80;;
2674;SDS011;1347;42.122;24.746;2023-02-15T01:27:12;24.23;;;16.33;;
2674;SDS011;1347;42.122;24.746;2023-02-15T01:29:39;24.67;;;17.13;;
2674;SDS011;1347;42.122;24.746;2023-02-15T01:32:06;23.80;;;18.57;;
2674;SDS011;1347;42.122;24.746;2023-02-15T01:34:33;24.53;;;17.73;;
2674;SDS011;1347;42.122;24.746;2023-02-15T01:37:00;23.47;;;16.43;;
2674;SDS011;1347;42.122;24.746;2023-02-15T01:39:27;23.40;;;18.30;;
2674;SDS011;1347;42.122;24.746;2023-02-15T01:41:54;24.20;;;18.83;;
2674;SDS011;1347;42.122;24.746;2023-02-15T01:47:16;25.23;;;16.97;;
2674;SDS011;1347;42.122;24.746;2023-02-15T01:49:46;23.77;;;18.30;;
2674;SDS011;1347;42.122;24.746;2023-02-15T01:52:14;23.30;;;17.93;;
2674;SDS011;1347;42.122;24.746;2023-02-15T01:54:44;27.57;;;18.07;;
2674;SDS011;1347;42.122;24.746;2023-02-15T01:57:13;29.27;;;19.20;;
2674;SDS011;1347;42.122;24.746;2023-02-15T01:59:44;26.40;;;18.77;;
2674;SDS011;1347;42.122;24.746;2023-02-15T02:02:17;25.63;;;18.13;;
2674;SDS011;1347;42.122;24.746;2023-02-15T02:04:47;24.63;;;18.97;;
2674;SDS011;1347;42.122;24.746;2023-02-15T02:07:16;27.87;;;18.87;;
2674;SDS011;1347;42.122;24.746;2023-02-15T02:09:46;26.57;;;18.30;;
2674;SDS011;1347;42.122;24.746;2023-02-15T02:12:14;24.93;;;17.77;;
2674;SDS011;1347;42.122;24.746;2023-02-15T02:14:43;24.60;;;17.50;;
2674;SDS011;1347;42.122;24.746;2023-02-15T02:17:14;28.70;;;18.20;;
2674;SDS011;1347;42.122;24.746;2023-02-15T02:23:00;21.63;;;16.80;;
2674;SDS011;1347;42.122;24.746;2023-02-15T02:28:43;25.47;;;16.93;;
2674;SDS011;1347;42.122;24.746;2023-02-15T02:31:43;25.53;;;17.80;;
2674;SDS011;1347;42.122;24.746;2023-02-15T02:34:29;25.23;;;17.33;;
2674;SDS011;1347;42.122;24.746;2023-02-15T02:37:00;23.30;;;18.77;;
2674;SDS011;1347;42.122;24.746;2023-02-15T02:39:37;22.27;;;16.90;;
2674;SDS011;1347;42.122;24.746;2023-02-15T02:42:12;24.57;;;17.30;;
2674;SDS011;1347;42.122;24.746;2023-02-15T02:44:45;23.00;;;17.97;;
2674;SDS011;1347;42.122;24.746;2023-02-15T02:47:16;23.13;;;17.03;;
2674;SDS011;1347;42.122;24.746;2023-02-15T02:49:51;23.90;;;17.10;;
2674;SDS011;1347;42.122;24.746;2023-02-15T02:52:37;28.30;;;18.50;;
2674;SDS011;1347;42.122;24.746;2023-02-15T02:55:06;29.17;;;20.00;;
2674;SDS011;1347;42.122;24.746;2023-02-15T02:57:40;27.77;;;18.57;;
2674;SDS011;1347;42.122;24.746;2023-02-15T03:00:13;27.97;;;18.77;;
2674;SDS011;1347;42.122;24.746;2023-02-15T03:02:42;25.20;;;18.70;;
2674;SDS011;1347;42.122;24.746;2023-02-15T03:05:14;29.10;;;20.70;;
2674;SDS011;1347;42.122;24.746;2023-02-15T03:07:45;28.93;;;19.47;;
2674;SDS011;1347;42.122;24.746;2023-02-15T03:10:16;28.40;;;19.83;;
2674;SDS011;1347;42.122;24.746;2023-02-15T03:12:47;33.20;;;21.37;;
2674;SDS011;1347;42.122;24.746;2023-02-15T03:15:15;28.83;;;20.57;;
2674;SDS011;1347;42.122;24.746;2023-02-15T03:17:46;30.10;;;21.30;;
2674;SDS011;1347;42.122;24.746;2023-02-15T03:20:21;26.90;;;20.87;;
2674;SDS011;1347;42.122;24.746;2023-02-15T03:22:53;28.70;;;19.70;;
2674;SDS011;1347;42.122;24.746;2023-02-15T03:25:25;28.93;;;20.33;;
2674;SDS011;1347;42.122;24.746;2023-02-15T03:27:58;26.57;;;20.93;;
2674;SDS011;1347;42.122;24.746;2023-02-15T03:30:28;28.60;;;20.93;;
2674;SDS011;1347;42.122;24.746;2023-02-15T03:32:57;29.40;;;19.37;;
2674;SDS011;1347;42.122;24.746;2023-02-15T03:35:29;30.03;;;19.60;;
2674;SDS011;1347;42.122;24.746;2023-02-15T03:38:00;30.47;;;20.47;;
2674;SDS011;1347;42.122;24.746;2023-02-15T03:40:28;32.30;;;19.70;;
2674;SDS011;1347;42.122;24.746;2023-02-15T03:43:16;29.30;;;20.87;;
2674;SDS011;1347;42.122;24.746;2023-02-15T03:45:49;25.57;;;18.53;;
2674;SDS011;1347;42.122;24.746;2023-02-15T03:48:23;26.27;;;18.33;;
2674;SDS011;1347;42.122;24.746;2023-02-15T03:50:54;26.10;;;20.00;;
2674;SDS011;1347;42.122;24.746;2023-02-15T03:53:42;29.00;;;20.73;;
2674;SDS011;1347;42.122;24.746;2023-02-15T03:56:11;28.70;;;19.50;;
2674;SDS011;1347;42.122;24.746;2023-02-15T03:58:38;25.87;;;19.50;;
2674;SDS011;1347;42.122;24.746;2023-02-15T04:01:24;27.67;;;19.77;;
2674;SDS011;1347;42.122;24.746;2023-02-15T04:04:37;25.70;;;20.00;;
2674;SDS011;1347;42.122;24.746;2023-02-15T04:07:07;31.30;;;20.00;;
2674;SDS011;1347;42.122;24.746;2023-02-15T04:09:35;28.90;;;20.83;;
2674;SDS011;1347;42.122;24.746;2023-02-15T04:12:22;32.30;;;20.43;;
2674;SDS011;1347;42.122;24.746;2023-02-15T04:14:49;27.77;;;20.67;;
2674;SDS011;1347;42.122;24.746;2023-02-15T04:17:33;30.13;;;20.60;;
2674;SDS011;1347;42.122;24.746;2023-02-15T04:20:01;31.40;;;21.00;;
2674;SDS011;1347;42.122;24.746;2023-02-15T04:22:46;27.57;;;19.80;;
2674;SDS011;1347;42.122;24.746;2023-02-15T04:25:30;30.23;;;22.23;;
2674;SDS011;1347;42.122;24.746;2023-02-15T04:27:57;29.90;;;19.60;;
2674;SDS011;1347;42.122;24.746;2023-02-15T04:30:24;27.27;;;18.97;;
2674;SDS011;1347;42.122;24.746;2023-02-15T04:32:52;27.90;;;19.10;;
2674;SDS011;1347;42.122;24.746;2023-02-15T04:35:21;25.47;;;18.30;;
2674;SDS011;1347;42.122;24.746;2023-02-15T04:37:48;28.37;;;18.60;;
2674;SDS011;1347;42.122;24.746;2023-02-15T04:40:15;27.27;;;20.10;;
2674;SDS011;1347;42.122;24.746;2023-02-15T04:42:42;29.53;;;20.33;;
2674;SDS011;1347;42.122;24.746;2023-02-15T04:45:09;28.93;;;18.87;;
2674;SDS011;1347;42.122;24.746;2023-02-15T04:47:36;29.80;;;20.20;;
2674;SDS011;1347;42.122;24.746;2023-02-15T04:50:03;27.33;;;19.63;;
2674;SDS011;1347;42.122;24.746;2023-02-15T04:52:32;33.60;;;20.90;;
2674;SDS011;1347;42.122;24.746;2023-02-15T04:54:59;24.70;;;18.30;;
2674;SDS011;1347;42.122;24.746;2023-02-15T04:57:26;29.30;;;19.97;;
2674;SDS011;1347;42.122;24.746;2023-02-15T04:59:52;24.50;;;18.50;;
2674;SDS011;1347;42.122;24.746;2023-02-15T05:02:19;28.27;;;19.90;;
2674;SDS011;1347;42.122;24.746;2023-02-15T05:04:46;30.07;;;20.53;;
2674;SDS011;1347;42.122;24.746;2023-02-15T05:07:13;29.50;;;20.10;;
2674;SDS011;1347;42.122;24.746;2023-02-15T05:09:42;30.13;;;20.73;;
2674;SDS011;1347;42.122;24.746;2023-02-15T05:12:09;30.43;;;20.40;;
2674;SDS011;1347;42.122;24.746;2023-02-15T05:14:36;26.13;;;19.30;;
2674;SDS011;1347;42.122;24.746;2023-02-15T05:17:03;27.53;;;18.90;;
2674;SDS011;1347;42.122;24.746;2023-02-15T05:19:30;26.93;;;19.93;;
2674;SDS011;1347;42.122;24.746;2023-02-15T05:21:57;29.73;;;19.20;;
2674;SDS011;1347;42.122;24.746;2023-02-15T05:24:25;30.13;;;20.10;;
2674;SDS011;1347;42.122;24.746;2023-02-15T05:27:11;29.17;;;19.23;;
2674;SDS011;1347;42.122;24.746;2023-02-15T05:29:56;29.13;;;19.10;;
2674;SDS011;1347;42.122;24.746;2023-02-15T05:32:23;28.97;;;19.60;;
2674;SDS011;1347;42.122;24.746;2023-02-15T05:34:50;29.90;;;20.90;;
2674;SDS011;1347;42.122;24.746;2023-02-15T05:37:17;30.03;;;20.10;;
2674;SDS011;1347;42.122;24.746;2023-02-15T05:39:44;30.37;;;21.73;;
2674;SDS011;1347;42.122;24.746;2023-02-15T05:42:12;32.00;;;20.23;;
2674;SDS011;1347;42.122;24.746;2023-02-15T05:44:39;29.73;;;21.30;;
2674;SDS011;1347;42.122;24.746;2023-02-15T05:47:06;25.07;;;19.17;;
2674;SDS011;1347;42.122;24.746;2023-02-15T05:49:33;32.87;;;21.40;;
2674;SDS011;1347;42.122;24.746;2023-02-15T05:52:00;32.40;;;20.87;;
2674;SDS011;1347;42.122;24.746;2023-02-15T05:54:27;30.00;;;19.90;;
2674;SDS011;1347;42.122;24.746;2023-02-15T05:56:54;32.87;;;19.33;;
2674;SDS011;1347;42.122;24.746;2023-02-15T05:59:23;26.83;;;19.40;;
2674;SDS011;1347;42.122;24.746;2023-02-15T06:01:50;28.47;;;19.87;;
2674;SDS011;1347;42.122;24.746;2023-02-15T06:04:17;28.23;;;21.13;;
2674;SDS011;1347;42.122;24.746;2023-02-15T06:06:44;26.93;;;20.47;;
2674;SDS011;1347;42.122;24.746;2023-02-15T06:09:11;30.80;;;19.27;;
2674;SDS011;1347;42.122;24.746;2023-02-15T06:11:38;25.37;;;19.73;;
2674;SDS011;1347;42.122;24.746;2023-02-15T06:14:05;28.73;;;18.67;;
2674;SDS011;1347;42.122;24.746;2023-02-15T06:16:34;29.67;;;20.73;;
2674;SDS011;1347;42.122;24.746;2023-02-15T06:19:01;24.27;;;19.97;;
2674;SDS011;1347;42.122;24.746;2023-02-15T06:21:29;25.60;;;20.13;;
2674;SDS011;1347;42.122;24.746;2023-02-15T06:23:56;26.03;;;18.47;;
2674;SDS011;1347;42.122;24.746;2023-02-15T06:26:23;25.20;;;19.77;;
2674;SDS011;1347;42.122;24.746;2023-02-15T06:28:50;28.90;;;20.87;;
2674;SDS011;1347;42.122;24.746;2023-02-15T06:31:17;25.87;;;19.03;;
2674;SDS011;1347;42.122;24.746;2023-02-15T06:33:45;21.80;;;19.50;;
2674;SDS011;1347;42.122;24.746;2023-02-15T06:36:12;27.60;;;21.27;;
2674;SDS011;1347;42.122;24.746;2023-02-15T06:38:39;23.77;;;20.47;;
2674;SDS011;1347;42.122;24.746;2023-02-15T06:41:06;26.37;;;20.50;;
2674;SDS011;1347;42.122;24.746;2023-02-15T06:43:32;28.40;;;21.53;;
2674;SDS011;1347;42.122;24.746;2023-02-15T06:46:00;25.50;;;19.77;;
2674;SDS011;1347;42.122;24.746;2023-02-15T06:48:27;25.23;;;20.13;;
2674;SDS011;1347;42.122;24.746;2023-02-15T06:50:55;27.20;;;19.93;;
2674;SDS011;1347;42.122;24.746;2023-02-15T06:53:22;27.07;;;20.50;;
2674;SDS011;1347;42.122;24.746;2023-02-15T06:55:49;24.00;;;19.40;;
2674;SDS011;1347;42.122;24.746;2023-02-15T06:58:16;29.77;;;19.70;;
2674;SDS011;1347;42.122;24.746;2023-02-15T07:00:43;29.20;;;20.07;;
2674;SDS011;1347;42.122;24.746;2023-02-15T07:03:12;26.40;;;18.50;;
2674;SDS011;1347;42.122;24.746;2023-02-15T07:05:40;24.73;;;18.20;;
2674;SDS011;1347;42.122;24.746;2023-02-15T07:08:08;24.27;;;18.90;;
2674;SDS011;1347;42.122;24.746;2023-02-15T07:10:35;22.23;;;19.07;;
2674;SDS011;1347;42.122;24.746;2023-02-15T07:13:02;23.33;;;17.20;;
2674;SDS011;1347;42.122;24.746;2023-02-15T07:15:28;25.50;;;18.73;;
2674;SDS011;1347;42.122;24.746;2023-02-15T07:17:55;24.80;;;17.47;;
2674;SDS011;1347;42.122;24.746;2023-02-15T07:20:23;20.17;;;16.60;;
2674;SDS011;1347;42.122;24.746;2023-02-15T07:22:50;25.53;;;17.70;;
2674;SDS011;1347;42.122;24.746;2023-02-15T07:25:19;20.67;;;17.83;;
2674;SDS011;1347;42.122;24.746;2023-02-15T07:27:46;21.83;;;18.77;;
2674;SDS011;1347;42.122;24.746;2023-02-15T07:30:14;19.00;;;17.00;;
2674;SDS011;1347;42.122;24.746;2023-02-15T07:32:42;20.53;;;18.47;;
2674;SDS011;1347;42.122;24.746;2023-02-15T07:35:23;26.13;;;18.07;;
2674;SDS011;1347;42.122;24.746;2023-02-15T07:37:50;20.30;;;18.17;;
2674;SDS011;1347;42.122;24.746;2023-02-15T07:40:19;21.20;;;18.67;;
2674;SDS011;1347;42.122;24.746;2023-02-15T07:42:48;21.63;;;17.87;;
2674;SDS011;1347;42.122;24.746;2023-02-15T07:45:18;21.90;;;19.60;;
2674;SDS011;1347;42.122;24.746;2023-02-15T07:47:45;21.57;;;18.33;;
2674;SDS011;1347;42.122;24.746;2023-02-15T07:50:12;23.83;;;18.60;;
2674;SDS011;1347;42.122;24.746;2023-02-15T07:52:39;20.70;;;18.27;;
2674;SDS011;1347;42.122;24.746;2023-02-15T07:55:06;21.30;;;19.00;;
2674;SDS011;1347;42.122;24.746;2023-02-15T07:57:35;21.83;;;18.33;;
2674;SDS011;1347;42.122;24.746;2023-02-15T08:00:02;20.10;;;18.00;;
2674;SDS011;1347;42.122;24.746;2023-02-15T08:02:30;20.90;;;17.77;;
2674;SDS011;1347;42.122;24.746;2023-02-15T08:04:57;19.80;;;17.80;;
2674;SDS011;1347;42.122;24.746;2023-02-15T08:07:24;18.67;;;16.00;;
2674;SDS011;1347;42.122;24.746;2023-02-15T08:09:51;19.80;;;17.70;;
2674;SDS011;1347;42.122;24.746;2023-02-15T08:12:18;20.47;;;18.37;;
2674;SDS011;1347;42.122;24.746;2023-02-15T08:14:47;21.00;;;18.77;;
2674;SDS011;1347;42.122;24.746;2023-02-15T08:17:14;20.43;;;18.33;;
2674;SDS011;1347;42.122;24.746;2023-02-15T08:19:41;20.70;;;18.80;;
2674;SDS011;1347;42.122;24.746;2023-02-15T08:22:10;21.17;;;18.97;;
2674;SDS011;1347;42.122;24.746;2023-02-15T08:24:39;22.13;;;19.97;;
2674;SDS011;1347;42.122;24.746;2023-02-15T08:27:07;22.20;;;19.50;;
2674;SDS011;1347;42.122;24.746;2023-02-15T08:29:36;21.67;;;19.37;;
2674;SDS011;1347;42.122;24.746;2023-02-15T08:32:06;23.77;;;20.43;;
2674;SDS011;1347;42.122;24.746;2023-02-15T08:34:36;24.57;;;18.90;;
2674;SDS011;1347;42.122;24.746;2023-02-15T08:37:04;22.37;;;20.27;;
2674;SDS011;1347;42.122;24.746;2023-02-15T08:39:31;23.67;;;21.30;;
2674;SDS011;1347;42.122;24.746;2023-02-15T08:41:58;22.20;;;20.10;;
2674;SDS011;1347;42.122;24.746;2023-02-15T08:44:25;21.63;;;19.27;;
2674;SDS011;1347;42.122;24.746;2023-02-15T08:46:52;21.63;;;19.70;;
2674;SDS011;1347;42.122;24.746;2023-02-15T08:49:21;21.10;;;19.17;;
2674;SDS011;1347;42.122;24.746;2023-02-15T08:51:49;22.03;;;20.07;;
2674;SDS011;1347;42.122;24.746;2023-02-15T08:54:17;21.77;;;19.67;;
2674;SDS011;1347;42.122;24.746;2023-02-15T08:56:44;23.27;;;20.83;;
2674;SDS011;1347;42.122;24.746;2023-02-15T08:59:13;22.83;;;20.63;;
2674;SDS011;1347;42.122;24.746;2023-02-15T09:01:41;22.57;;;20.47;;
2674;SDS011;1347;42.122;24.746;2023-02-15T09:04:09;21.27;;;19.33;;
2674;SDS011;1347;42.122;24.746;2023-02-15T09:06:39;22.37;;;20.17;;
2674;SDS011;1347;42.122;24.746;2023-02-15T09:09:08;21.80;;;19.90;;
2674;SDS011;1347;42.122;24.746;2023-02-15T09:11:35;22.93;;;20.63;;
2674;SDS011;1347;42.122;24.746;2023-02-15T09:14:04;22.17;;;20.20;;
2674;SDS011;1347;42.122;24.746;2023-02-15T09:16:34;22.40;;;20.40;;
2674;SDS011;1347;42.122;24.746;2023-02-15T09:19:06;21.77;;;19.77;;
2674;SDS011;1347;42.122;24.746;2023-02-15T09:21:40;22.97;;;20.93;;
2674;SDS011;1347;42.122;24.746;2023-02-15T09:24:12;20.97;;;18.97;;
2674;SDS011;1347;42.122;24.746;2023-02-15T09:26:41;20.47;;;18.70;;
2674;SDS011;1347;42.122;24.746;2023-02-15T09:29:09;21.63;;;19.60;;
2674;SDS011;1347;42.122;24.746;2023-02-15T09:31:37;19.63;;;17.93;;
2674;SDS011;1347;42.122;24.746;2023-02-15T09:34:06;21.87;;;19.87;;
2674;SDS011;1347;42.122;24.746;2023-02-15T09:36:33;20.70;;;18.90;;
2674;SDS011;1347;42.122;24.746;2023-02-15T09:39:06;22.13;;;20.03;;
2674;SDS011;1347;42.122;24.746;2023-02-15T09:44:29;20.03;;;18.23;;
2674;SDS011;1347;42.122;24.746;2023-02-15T09:47:18;19.50;;;17.80;;
2674;SDS011;1347;42.122;24.746;2023-02-15T09:50:03;22.93;;;19.17;;
2674;SDS011;1347;42.122;24.746;2023-02-15T09:52:49;21.00;;;18.97;;
2674;SDS011;1347;42.122;24.746;2023-02-15T09:55:35;20.97;;;19.00;;
2674;SDS011;1347;42.122;24.746;2023-02-15T09:58:11;21.80;;;19.77;;
2674;SDS011;1347;42.122;24.746;2023-02-15T10:00:48;21.27;;;19.37;;
2674;SDS011;1347;42.122;24.746;2023-02-15T10:03:27;21.43;;;19.43;;
2674;SDS011;1347;42.122;24.746;2023-02-15T10:06:20;21.63;;;19.70;;
2674;SDS011;1347;42.122;24.746;2023-02-15T10:09:01;19.90;;;18.07;;
2674;SDS011;1347;42.122;24.746;2023-02-15T10:11:39;20.13;;;18.23;;
2674;SDS011;1347;42.122;24.746;2023-02-15T10:14:26;19.57;;;17.57;;
2674;SDS011;1347;42.122;24.746;2023-02-15T10:17:14;20.80;;;18.90;;
2674;SDS011;1347;42.122;24.746;2023-02-15T10:19:57;21.67;;;19.67;;
2674;SDS011;1347;42.122;24.746;2023-02-15T10:22:37;20.90;;;19.00;;
2674;SDS011;1347;42.122;24.746;2023-02-15T10:25:19;20.20;;;18.10;;
2674;SDS011;1347;42.122;24.746;2023-02-15T10:27:57;21.53;;;19.60;;
2674;SDS011;1347;42.122;24.746;2023-02-15T10:30:31;18.67;;;17.00;;
2674;SDS011;1347;42.122;24.746;2023-02-15T10:33:09;19.40;;;17.57;;
2674;SDS011;1347;42.122;24.746;2023-02-15T10:35:42;21.03;;;19.13;;
2674;SDS011;1347;42.122;24.746;2023-02-15T10:38:21;20.13;;;18.23;;
2674;SDS011;1347;42.122;24.746;2023-02-15T10:41:02;20.23;;;18.43;;
2674;SDS011;1347;42.122;24.746;2023-02-15T10:43:54;19.93;;;17.60;;
2674;SDS011;1347;42.122;24.746;2023-02-15T10:46:46;19.83;;;17.83;;
2674;SDS011;1347;42.122;24.746;2023-02-15T10:49:29;20.87;;;18.77;;
2674;SDS011;1347;42.122;24.746;2023-02-15T10:52:25;20.83;;;18.70;;
2674;SDS011;1347;42.122;24.746;2023-02-15T10:55:06;18.67;;;16.80;;
2674;SDS011;1347;42.122;24.746;2023-02-15T10:57:39;20.50;;;18.33;;
2674;SDS011;1347;42.122;24.746;2023-02-15T11:00:13;21.03;;;18.90;;
2674;SDS011;1347;42.122;24.746;2023-02-15T11:02:50;21.23;;;18.17;;
2674;SDS011;1347;42.122;24.746;2023-02-15T11:05:35;19.07;;;17.27;;
2674;SDS011;1347;42.122;24.746;2023-02-15T11:08:10;19.90;;;17.97;;
2674;SDS011;1347;42.122;24.746;2023-02-15T11:10:38;20.37;;;18.33;;
2674;SDS011;1347;42.122;24.746;2023-02-15T11:13:11;18.43;;;16.67;;
2674;SDS011;1347;42.122;24.746;2023-02-15T11:15:43;21.10;;;18.90;;
2674;SDS011;1347;42.122;24.746;2023-02-15T11:18:14;19.43;;;17.53;;
2674;SDS011;1347;42.122;24.746;2023-02-15T11:20:47;18.03;;;16.23;;
2674;SDS011;1347;42.122;24.746;2023-02-15T11:23:19;19.20;;;17.40;;
2674;SDS011;1347;42.122;24.746;2023-02-15T11:25:52;18.53;;;16.63;;
2674;SDS011;1347;42.122;24.746;2023-02-15T11:28:24;18.50;;;16.60;;
2674;SDS011;1347;42.122;24.746;2023-02-15T11:30:58;19.50;;;17.70;;
2674;SDS011;1347;42.122;24.746;2023-02-15T11:33:29;18.60;;;16.80;;
2674;SDS011;1347;42.122;24.746;2023-02-15T11:36:03;19.63;;;17.20;;
2674;SDS011;1347;42.122;24.746;2023-02-15T11:38:34;17.40;;;15.70;;
2674;SDS011;1347;42.122;24.746;2023-02-15T11:41:05;17.97;;;15.80;;
2674;SDS011;1347;42.122;24.746;2023-02-15T11:43:36;18.70;;;16.80;;
2674;SDS011;1347;42.122;24.746;2023-02-15T11:46:10;17.00;;;15.33;;
2674;SDS011;1347;42.122;24.746;2023-02-15T11:48:40;17.97;;;16.27;;
2674;SDS011;1347;42.122;24.746;2023-02-15T11:51:08;22.50;;;18.57;;
2674;SDS011;1347;42.122;24.746;2023-02-15T11:53:39;17.73;;;16.13;;
2674;SDS011;1347;42.122;24.746;2023-02-15T11:56:10;19.00;;;16.03;;
2674;SDS011;1347;42.122;24.746;2023-02-15T11:58:41;18.40;;;16.57;;
2674;SDS011;1347;42.122;24.746;2023-02-15T12:01:14;19.23;;;17.33;;
2674;SDS011;1347;42.122;24.746;2023-02-15T12:03:45;17.80;;;15.97;;
2674;SDS011;1347;42.122;24.746;2023-02-15T12:06:22;19.47;;;17.57;;
2674;SDS011;1347;42.122;24.746;2023-02-15T12:08:54;19.10;;;17.10;;
2674;SDS011;1347;42.122;24.746;2023-02-15T12:11:28;19.37;;;17.27;;
2674;SDS011;1347;42.122;24.746;2023-02-15T12:14:00;19.10;;;17.20;;
2674;SDS011;1347;42.122;24.746;2023-02-15T12:16:31;19.23;;;17.30;;
2674;SDS011;1347;42.122;24.746;2023-02-15T12:19:01;17.70;;;16.10;;
2674;SDS011;1347;42.122;24.746;2023-02-15T12:21:29;20.83;;;16.03;;
2674;SDS011;1347;42.122;24.746;2023-02-15T12:24:00;18.10;;;16.33;;
2674;SDS011;1347;42.122;24.746;2023-02-15T12:26:31;16.87;;;15.17;;
2674;SDS011;1347;42.122;24.746;2023-02-15T12:29:00;18.50;;;16.30;;
2674;SDS011;1347;42.122;24.746;2023-02-15T12:31:36;19.57;;;17.67;;
2674;SDS011;1347;42.122;24.746;2023-02-15T12:34:08;17.30;;;15.63;;
2674;SDS011;1347;42.122;24.746;2023-02-15T12:36:40;17.43;;;15.83;;
2674;SDS011;1347;42.122;24.746;2023-02-15T12:39:18;17.10;;;15.50;;
2674;SDS011;1347;42.122;24.746;2023-02-15T12:41:57;18.90;;;17.00;;
2674;SDS011;1347;42.122;24.746;2023-02-15T12:44:27;18.03;;;15.93;;
2674;SDS011;1347;42.122;24.746;2023-02-15T12:46:57;18.40;;;16.70;;
2674;SDS011;1347;42.122;24.746;2023-02-15T12:49:27;15.07;;;13.77;;
2674;SDS011;1347;42.122;24.746;2023-02-15T12:51:55;17.60;;;16.00;;
2674;SDS011;1347;42.122;24.746;2023-02-15T12:54:34;17.27;;;15.43;;
2674;SDS011;1347;42.122;24.746;2023-02-15T12:57:13;17.60;;;15.90;;
2674;SDS011;1347;42.122;24.746;2023-02-15T12:59:50;18.13;;;16.43;;
2674;SDS011;1347;42.122;24.746;2023-02-15T13:02:21;17.80;;;16.20;;
2674;SDS011;1347;42.122;24.746;2023-02-15T13:04:53;16.90;;;15.40;;
2674;SDS011;1347;42.122;24.746;2023-02-15T13:07:23;16.30;;;14.90;;
2674;SDS011;1347;42.122;24.746;2023-02-15T13:09:56;17.03;;;15.50;;
2674;SDS011;1347;42.122;24.746;2023-02-15T13:12:24;17.03;;;15.40;;
2674;SDS011;1347;42.122;24.746;2023-02-15T13:14:55;16.73;;;15.27;;
2674;SDS011;1347;42.122;24.746;2023-02-15T13:17:26;16.80;;;15.20;;
2674;SDS011;1347;42.122;24.746;2023-02-15T13:19:57;15.93;;;14.43;;
2674;SDS011;1347;42.122;24.746;2023-02-15T13:22:33;15.83;;;14.33;;
2674;SDS011;1347;42.122;24.746;2023-02-15T13:25:09;19.00;;;14.40;;
2674;SDS011;1347;42.122;24.746;2023-02-15T13:27:39;14.40;;;12.90;;
2674;SDS011;1347;42.122;24.746;2023-02-15T13:30:13;17.80;;;15.87;;
2674;SDS011;1347;42.122;24.746;2023-02-15T13:32:49;17.77;;;14.33;;
2674;SDS011;1347;42.122;24.746;2023-02-15T13:35:21;21.23;;;18.63;;
2674;SDS011;1347;42.122;24.746;2023-02-15T13:37:56;25.23;;;22.53;;
2674;SDS011;1347;42.122;24.746;2023-02-15T13:40:33;21.10;;;18.27;;
2674;SDS011;1347;42.122;24.746;2023-02-15T13:43:05;22.67;;;17.23;;
2674;SDS011;1347;42.122;24.746;2023-02-15T13:45:48;19.30;;;15.30;;
2674;SDS011;1347;42.122;24.746;2023-02-15T13:48:29;15.83;;;14.23;;
2674;SDS011;1347;42.122;24.746;2023-02-15T13:51:09;26.80;;;21.90;;
2674;SDS011;1347;42.122;24.746;2023-02-15T13:53:53;21.37;;;18.30;;
2674;SDS011;1347;42.122;24.746;2023-02-15T13:56:33;17.23;;;14.93;;
2674;SDS011;1347;42.122;24.746;2023-02-15T13:59:17;18.27;;;15.30;;
2674;SDS011;1347;42.122;24.746;2023-02-15T14:02:35;16.80;;;14.77;;
2674;SDS011;1347;42.122;24.746;2023-02-15T14:05:26;17.83;;;15.27;;
2674;SDS011;1347;42.122;24.746;2023-02-15T14:08:01;17.57;;;15.13;;
2674;SDS011;1347;42.122;24.746;2023-02-15T14:10:51;16.63;;;14.07;;
2674;SDS011;1347;42.122;24.746;2023-02-15T14:16:19;18.00;;;13.80;;
2674;SDS011;1347;42.122;24.746;2023-02-15T14:18:59;16.00;;;14.37;;
2674;SDS011;1347;42.122;24.746;2023-02-15T14:21:39;17.83;;;13.63;;
2674;SDS011;1347;42.122;24.746;2023-02-15T14:24:17;16.50;;;14.70;;
2674;SDS011;1347;42.122;24.746;2023-02-15T14:26:56;16.30;;;13.97;;
2674;SDS011;1347;42.122;24.746;2023-02-15T14:29:38;15.83;;;14.10;;
2674;SDS011;1347;42.122;24.746;2023-02-15T14:32:15;16.43;;;13.87;;
2674;SDS011;1347;42.122;24.746;2023-02-15T14:34:48;18.50;;;14.97;;
2674;SDS011;1347;42.122;24.746;2023-02-15T14:37:21;20.40;;;16.33;;
2674;SDS011;1347;42.122;24.746;2023-02-15T14:39:55;18.83;;;15.77;;
2674;SDS011;1347;42.122;24.746;2023-02-15T14:42:45;19.57;;;15.07;;
2674;SDS011;1347;42.122;24.746;2023-02-15T14:45:21;15.73;;;13.70;;
2674;SDS011;1347;42.122;24.746;2023-02-15T14:47:52;16.80;;;14.43;;
2674;SDS011;1347;42.122;24.746;2023-02-15T14:50:38;20.00;;;16.40;;
2674;SDS011;1347;42.122;24.746;2023-02-15T14:53:32;18.57;;;15.13;;
2674;SDS011;1347;42.122;24.746;2023-02-15T15:01:41;19.07;;;16.17;;
2674;SDS011;1347;42.122;24.746;2023-02-15T15:04:21;19.83;;;17.73;;
2674;SDS011;1347;42.122;24.746;2023-02-15T15:07:00;21.73;;;14.30;;
2674;SDS011;1347;42.122;24.746;2023-02-15T15:09:35;17.40;;;15.43;;
2674;SDS011;1347;42.122;24.746;2023-02-15T15:15:05;23.20;;;16.83;;
2674;SDS011;1347;42.122;24.746;2023-02-15T15:17:53;18.60;;;16.60;;
2674;SDS011;1347;42.122;24.746;2023-02-15T15:20:40;17.60;;;15.77;;
2674;SDS011;1347;42.122;24.746;2023-02-15T15:26:24;17.90;;;14.30;;
2674;SDS011;1347;42.122;24.746;2023-02-15T15:28:54;17.93;;;14.77;;